Time,TemperatureF,DewpointF,PressureIn,WindDirection,WindDirectionDegrees,WindSpeedMPH,WindSpeedGustMPH,Humidity,HourlyPrecipIn,Conditions,Clouds,dailyrainin,SoftwareType,DateUTC
2013-06-02 00:04:00,75.0,68.8,29.65,North,0,0.0,0.0,81,0.00,,---,0.43,VWS V13.01,2013-06-02 04:04:00,
2013-06-02 00:09:00,75.0,68.8,29.65,North,0,0.0,0.0,81,0.00,,---,0.43,VWS V13.01,2013-06-02 04:09:00,
2013-06-02 00:14:00,75.0,68.8,29.65,North,0,0.0,0.0,81,0.00,,---,0.43,VWS V13.01,2013-06-02 04:14:00,
2013-06-02 00:19:00,75.0,68.8,29.64,North,0,0.0,0.0,81,0.00,,---,0.43,VWS V13.01,2013-06-02 04:19:00,
2013-06-02 00:24:00,75.0,68.8,29.64,North,0,0.0,0.0,81,0.00,,---,0.43,VWS V13.01,2013-06-02 04:24:00,
2013-06-02 00:34:00,74.8,68.6,29.65,North,0,0.0,0.0,81,0.00,,---,0.43,VWS V13.01,2013-06-02 04:34:00,
2013-06-02 00:39:00,74.8,68.6,29.65,North,0,0.0,0.0,81,0.00,,---,0.43,VWS V13.01,2013-06-02 04:39:00,
2013-06-02 00:44:00,74.8,68.6,29.65,North,0,0.0,0.0,81,0.00,,---,0.43,VWS V13.01,2013-06-02 04:44:00,
2013-06-02 00:54:00,74.8,68.6,29.64,North,0,0.0,0.0,81,0.00,,---,0.43,VWS V13.01,2013-06-02 04:54:00,
2013-06-02 01:04:00,74.8,68.6,29.65,North,0,0.0,0.0,81,0.00,,---,0.43,VWS V13.01,2013-06-02 05:04:00,
2013-06-02 01:09:00,74.8,68.6,29.65,North,0,0.0,0.0,81,0.00,,---,0.43,VWS V13.01,2013-06-02 05:09:00,
2013-06-02 01:14:00,74.8,68.6,29.63,North,0,0.0,0.0,81,0.00,,---,0.41,VWS V13.01,2013-06-02 05:14:00,
2013-06-02 01:24:00,74.8,68.6,29.63,North,0,0.0,0.0,81,0.00,,---,0.41,VWS V13.01,2013-06-02 05:24:00,
2013-06-02 01:29:00,74.8,68.6,29.63,North,0,0.0,0.0,81,0.00,,---,0.41,VWS V13.01,2013-06-02 05:29:00,
2013-06-02 01:39:00,74.7,68.4,29.62,North,0,0.0,0.0,81,0.00,,---,0.41,VWS V13.01,2013-06-02 05:39:00,
2013-06-02 01:44:00,74.5,68.3,29.62,North,0,0.0,0.0,81,0.00,,---,0.41,VWS V13.01,2013-06-02 05:44:00,
2013-06-02 01:54:00,74.5,68.6,29.62,North,0,0.0,4.7,82,0.00,,---,0.41,VWS V13.01,2013-06-02 05:54:00,
2013-06-02 02:04:00,74.3,68.4,29.61,North,0,0.0,0.0,82,0.00,,---,0.41,VWS V13.01,2013-06-02 06:04:00,
2013-06-02 02:14:00,74.3,68.4,29.60,North,0,0.0,0.0,82,0.00,,---,0.41,VWS V13.01,2013-06-02 06:14:00,
2013-06-02 02:24:00,74.3,68.4,29.60,North,0,0.0,0.0,82,0.00,,---,0.41,VWS V13.01,2013-06-02 06:24:00,
2013-06-02 02:29:00,74.3,68.4,29.60,NNE,22,0.0,0.0,82,0.00,,---,0.41,VWS V13.01,2013-06-02 06:29:00,
2013-06-02 02:39:00,74.3,68.4,29.60,NNE,22,0.0,0.0,82,0.00,,---,0.41,VWS V13.01,2013-06-02 06:39:00,
2013-06-02 02:44:00,74.1,68.3,29.61,NNE,22,0.0,0.0,82,0.00,,---,0.41,VWS V13.01,2013-06-02 06:44:00,
2013-06-02 02:54:00,74.1,68.3,29.60,North,0,0.0,0.0,82,0.00,,---,0.41,VWS V13.01,2013-06-02 06:54:00,
2013-06-02 03:04:00,73.9,68.1,29.60,North,0,0.0,0.0,82,0.00,,---,0.41,VWS V13.01,2013-06-02 07:04:00,
2013-06-02 03:14:00,73.9,68.1,29.61,North,0,0.0,0.0,82,0.00,,---,0.41,VWS V13.01,2013-06-02 07:14:00,
2013-06-02 03:19:00,73.9,68.1,29.60,North,0,0.0,0.0,82,0.00,,---,0.41,VWS V13.01,2013-06-02 07:19:00,
2013-06-02 03:24:00,73.9,68.1,29.60,North,0,0.4,0.4,82,0.00,,---,0.41,VWS V13.01,2013-06-02 07:24:00,
2013-06-02 03:34:00,73.9,68.1,29.60,NNE,22,0.0,0.0,82,0.00,,---,0.41,VWS V13.01,2013-06-02 07:34:00,
2013-06-02 03:44:00,73.9,68.1,29.60,NNE,22,0.0,0.0,82,0.00,,---,0.41,VWS V13.01,2013-06-02 07:44:00,
2013-06-02 03:49:00,73.8,67.9,29.60,NNE,22,0.0,0.0,82,0.00,,---,0.41,VWS V13.01,2013-06-02 07:49:00,
2013-06-02 03:59:00,73.9,68.1,29.60,NNE,22,0.0,0.0,82,0.00,,---,0.41,VWS V13.01,2013-06-02 07:59:00,
2013-06-02 04:04:00,73.8,67.9,29.60,NNE,22,0.0,0.0,82,0.00,,---,0.41,VWS V13.01,2013-06-02 08:04:00,
2013-06-02 04:14:00,73.8,67.9,29.60,NNE,22,0.0,0.0,82,0.00,,---,0.41,VWS V13.01,2013-06-02 08:14:00,
2013-06-02 04:24:00,73.8,67.9,29.60,NNE,22,0.0,0.0,82,0.00,,---,0.41,VWS V13.01,2013-06-02 08:24:00,
2013-06-02 04:29:00,73.6,67.8,29.60,NNE,22,0.0,0.0,82,0.00,,---,0.41,VWS V13.01,2013-06-02 08:29:00,
2013-06-02 04:39:00,73.6,67.8,29.60,NNE,22,0.0,0.0,82,0.00,,---,0.41,VWS V13.01,2013-06-02 08:39:00,
2013-06-02 04:49:00,73.6,67.8,29.60,NNE,22,0.0,0.0,82,0.00,,---,0.41,VWS V13.01,2013-06-02 08:49:00,
2013-06-02 04:54:00,73.6,67.8,29.60,NNE,22,0.0,0.0,82,0.00,,---,0.41,VWS V13.01,2013-06-02 08:54:00,
2013-06-02 05:04:00,73.4,67.6,29.60,NNE,22,0.0,0.0,82,0.00,,---,0.41,VWS V13.01,2013-06-02 09:04:00,
2013-06-02 05:09:00,73.4,67.6,29.60,NNE,22,0.0,0.0,82,0.00,,---,0.41,VWS V13.01,2013-06-02 09:09:00,
2013-06-02 05:19:00,73.2,67.4,29.59,NNE,22,0.0,0.0,82,0.00,,---,0.41,VWS V13.01,2013-06-02 09:19:00,
2013-06-02 05:29:00,73.2,67.4,29.59,NNE,22,0.0,0.0,82,0.00,,---,0.41,VWS V13.01,2013-06-02 09:29:00,
2013-06-02 05:39:00,73.0,67.2,29.60,NNE,22,0.0,0.0,82,0.00,,---,0.41,VWS V13.01,2013-06-02 09:39:00,
2013-06-02 05:49:00,73.0,67.2,29.60,NNE,22,0.0,0.0,82,0.00,,---,0.41,VWS V13.01,2013-06-02 09:49:00,
2013-06-02 05:59:00,73.0,67.2,29.61,NNE,22,0.0,0.0,82,0.00,,---,0.41,VWS V13.01,2013-06-02 09:59:00,
2013-06-02 06:04:00,73.0,67.2,29.61,NNE,22,0.0,0.0,82,0.00,,---,0.41,VWS V13.01,2013-06-02 10:04:00,
2013-06-02 06:14:00,72.9,67.1,29.61,NNE,22,0.0,0.0,82,0.00,,---,0.41,VWS V13.01,2013-06-02 10:14:00,
2013-06-02 06:19:00,72.9,67.1,29.62,NNE,22,0.0,0.0,82,0.00,,---,0.41,VWS V13.01,2013-06-02 10:19:00,
2013-06-02 06:29:00,72.9,67.1,29.62,NNE,22,0.0,0.0,82,0.00,,---,0.41,VWS V13.01,2013-06-02 10:29:00,
2013-06-02 06:34:00,72.9,67.1,29.62,NNE,22,0.0,0.0,82,0.00,,---,0.41,VWS V13.01,2013-06-02 10:34:00,
2013-06-02 06:44:00,72.7,66.9,29.63,North,0,0.0,0.0,82,0.00,,---,0.41,VWS V13.01,2013-06-02 10:44:00,
2013-06-02 06:54:00,72.9,67.1,29.63,North,0,0.0,0.0,82,0.00,,---,0.41,VWS V13.01,2013-06-02 10:54:00,
2013-06-02 07:04:00,72.9,67.1,29.63,North,0,0.0,0.0,82,0.00,,---,0.41,VWS V13.01,2013-06-02 11:04:00,
2013-06-02 07:09:00,72.9,67.1,29.63,North,0,0.0,0.0,82,0.00,,---,0.41,VWS V13.01,2013-06-02 11:09:00,
2013-06-02 07:14:00,73.0,67.2,29.63,North,0,0.0,0.0,82,0.00,,---,0.41,VWS V13.01,2013-06-02 11:14:00,
2013-06-02 07:24:00,73.0,67.2,29.64,North,0,0.0,0.0,82,0.00,,---,0.41,VWS V13.01,2013-06-02 11:24:00,
2013-06-02 07:34:00,73.2,67.4,29.64,North,0,0.0,0.0,82,0.00,,---,0.41,VWS V13.01,2013-06-02 11:34:00,
2013-06-02 07:44:00,73.9,68.1,29.63,North,0,0.0,0.0,82,0.00,,---,0.41,VWS V13.01,2013-06-02 11:44:00,
2013-06-02 07:49:00,74.5,68.6,29.63,North,0,0.0,0.0,82,0.00,,---,0.41,VWS V13.01,2013-06-02 11:49:00,
2013-06-02 07:59:00,75.2,69.3,29.63,North,0,0.0,0.0,82,0.00,,---,0.41,VWS V13.01,2013-06-02 11:59:00,
2013-06-02 08:04:00,75.7,69.9,29.64,North,0,0.0,0.0,82,0.00,,---,0.41,VWS V13.01,2013-06-02 12:04:00,
2013-06-02 08:14:00,76.5,70.6,29.64,North,0,0.0,0.0,82,0.00,,---,0.41,VWS V13.01,2013-06-02 12:14:00,
2013-06-02 08:24:00,77.7,71.8,29.63,North,0,0.0,0.0,82,0.00,,---,0.41,VWS V13.01,2013-06-02 12:24:00,
2013-06-02 08:29:00,78.3,72.3,29.64,North,0,0.0,0.0,82,0.00,,---,0.41,VWS V13.01,2013-06-02 12:29:00,
2013-06-02 08:39:00,79.2,73.2,29.64,NNE,22,0.0,0.0,82,0.00,,---,0.41,VWS V13.01,2013-06-02 12:39:00,
2013-06-02 08:44:00,79.9,73.5,29.64,NNE,22,0.0,0.0,81,0.00,,---,0.41,VWS V13.01,2013-06-02 12:44:00,
2013-06-02 08:54:00,80.4,73.7,29.64,South,180,0.0,2.5,80,0.00,,---,0.41,VWS V13.01,2013-06-02 12:54:00,
2013-06-02 09:04:00,81.0,73.8,29.64,SW,225,0.0,0.0,79,0.00,,---,0.41,VWS V13.01,2013-06-02 13:04:00,
2013-06-02 09:14:00,81.7,74.2,29.63,South,180,0.0,1.8,78,0.00,,---,0.41,VWS V13.01,2013-06-02 13:14:00,
2013-06-02 09:24:00,82.2,73.9,29.63,SE,135,0.0,0.0,76,0.00,,---,0.41,VWS V13.01,2013-06-02 13:24:00,
2013-06-02 09:29:00,82.9,74.2,29.63,NNW,338,0.0,0.0,75,0.00,,---,0.41,VWS V13.01,2013-06-02 13:29:00,
2013-06-02 09:39:00,83.5,74.7,29.63,ESE,112,0.0,0.0,75,0.00,,---,0.41,VWS V13.01,2013-06-02 13:39:00,
2013-06-02 09:44:00,84.0,74.8,29.63,ENE,68,0.0,0.0,74,0.00,,---,0.41,VWS V13.01,2013-06-02 13:44:00,
2013-06-02 09:54:00,84.2,74.2,29.63,SE,135,1.8,1.8,72,0.00,,---,0.41,VWS V13.01,2013-06-02 13:54:00,
2013-06-02 09:59:00,84.4,74.4,29.63,SSE,158,0.0,1.8,72,0.00,,---,0.41,VWS V13.01,2013-06-02 13:59:00,
2013-06-02 10:09:00,84.9,74.9,29.64,SSE,158,2.5,2.5,72,0.00,,---,0.41,VWS V13.01,2013-06-02 14:09:00,
2013-06-02 10:19:00,85.6,73.9,29.63,ESE,112,6.0,6.0,68,0.00,,---,0.41,VWS V13.01,2013-06-02 14:19:00,
2013-06-02 10:29:00,86.2,74.8,29.64,SE,135,0.0,3.1,69,0.00,,---,0.41,VWS V13.01,2013-06-02 14:29:00,
2013-06-02 10:39:00,86.5,74.3,29.64,ENE,68,3.8,3.8,67,0.00,,---,0.41,VWS V13.01,2013-06-02 14:39:00,
2013-06-02 10:44:00,86.5,74.7,29.64,SE,135,0.0,3.8,68,0.00,,---,0.41,VWS V13.01,2013-06-02 14:44:00,
2013-06-02 10:54:00,86.7,74.5,29.64,East,90,7.4,7.4,67,0.00,,---,0.41,VWS V13.01,2013-06-02 14:54:00,
2013-06-02 11:04:00,86.7,74.5,29.64,SE,135,5.4,6.9,67,0.00,,---,0.41,VWS V13.01,2013-06-02 15:04:00,
2013-06-02 11:09:00,86.7,74.5,29.63,South,180,5.1,5.4,67,0.00,,---,0.41,VWS V13.01,2013-06-02 15:09:00,
2013-06-02 11:19:00,87.3,75.0,29.63,SE,135,0.0,5.8,67,0.00,,---,0.41,VWS V13.01,2013-06-02 15:19:00,
2013-06-02 11:29:00,87.1,74.8,29.63,SSE,158,0.0,7.4,67,0.00,,---,0.41,VWS V13.01,2013-06-02 15:29:00,
2013-06-02 11:39:00,87.8,74.6,29.63,ENE,68,1.3,7.8,65,0.00,,---,0.41,VWS V13.01,2013-06-02 15:39:00,
2013-06-02 11:44:00,87.1,73.9,29.63,ENE,68,6.0,6.0,65,0.00,,---,0.41,VWS V13.01,2013-06-02 15:44:00,
2013-06-02 11:54:00,87.1,74.3,29.63,SSW,202,0.0,6.0,66,0.00,,---,0.41,VWS V13.01,2013-06-02 15:54:00,
2013-06-02 11:59:00,87.6,74.4,29.63,ESE,112,7.2,7.2,65,0.00,,---,0.41,VWS V13.01,2013-06-02 15:59:00,
2013-06-02 12:09:00,87.6,73.0,29.62,ENE,68,6.7,6.7,62,0.00,,---,0.41,VWS V13.01,2013-06-02 16:09:00,
2013-06-02 12:19:00,88.2,73.5,29.62,ESE,112,1.3,7.4,62,0.00,,---,0.41,VWS V13.01,2013-06-02 16:19:00,
2013-06-02 12:29:00,88.3,73.2,29.62,ESE,112,7.6,8.7,61,0.00,,---,0.41,VWS V13.01,2013-06-02 16:29:00,
2013-06-02 12:34:00,88.3,73.2,29.62,ESE,112,9.8,9.8,61,0.00,,---,0.41,VWS V13.01,2013-06-02 16:34:00,
2013-06-02 12:44:00,88.5,73.8,29.62,SE,135,5.6,5.6,62,0.00,,---,0.41,VWS V13.01,2013-06-02 16:44:00,
2013-06-02 12:54:00,88.3,73.7,29.63,East,90,9.0,9.0,62,0.00,,---,0.41,VWS V13.01,2013-06-02 16:54:00,
2013-06-02 12:59:00,88.0,72.9,29.62,East,90,9.2,9.6,61,0.00,,---,0.41,VWS V13.01,2013-06-02 16:59:00,
2013-06-02 13:09:00,87.6,73.9,29.62,ENE,68,6.5,9.0,64,0.00,,---,0.41,VWS V13.01,2013-06-02 17:09:00,
2013-06-02 13:14:00,87.8,73.6,29.62,ENE,68,7.6,7.6,63,0.00,,---,0.41,VWS V13.01,2013-06-02 17:14:00,
2013-06-02 13:24:00,86.7,74.0,29.61,SE,135,3.1,3.1,66,0.00,,---,0.41,VWS V13.01,2013-06-02 17:24:00,
2013-06-02 13:34:00,87.6,74.9,29.61,ESE,112,5.8,6.9,66,0.00,,---,0.41,VWS V13.01,2013-06-02 17:34:00,
2013-06-02 13:44:00,87.6,74.9,29.60,SE,135,8.5,8.5,66,0.00,,---,0.41,VWS V13.01,2013-06-02 17:44:00,
2013-06-02 13:54:00,87.8,74.6,29.60,SE,135,7.4,7.4,65,0.00,,---,0.41,VWS V13.01,2013-06-02 17:54:00,
2013-06-02 14:04:00,87.8,74.1,29.60,SE,135,7.2,7.4,64,0.00,,---,0.37,VWS V13.01,2013-06-02 18:04:00,
2013-06-02 14:14:00,88.5,75.3,29.60,SE,135,6.9,6.9,65,0.00,,---,0.37,VWS V13.01,2013-06-02 18:14:00,
2013-06-02 14:24:00,88.3,74.6,29.60,South,180,4.7,8.3,64,0.00,,---,0.37,VWS V13.01,2013-06-02 18:24:00,
2013-06-02 14:34:00,88.2,74.4,29.60,ESE,112,5.6,5.6,64,0.00,,---,0.37,VWS V13.01,2013-06-02 18:34:00,
2013-06-02 14:39:00,87.6,74.4,29.60,South,180,6.5,6.5,65,0.00,,---,0.37,VWS V13.01,2013-06-02 18:39:00,
2013-06-02 14:44:00,87.6,74.4,29.60,SE,135,2.9,6.5,65,0.00,,---,0.37,VWS V13.01,2013-06-02 18:44:00,
2013-06-02 14:54:00,87.4,74.2,29.60,SE,135,2.9,6.3,65,0.00,,---,0.37,VWS V13.01,2013-06-02 18:54:00,
2013-06-02 14:59:00,87.1,74.3,29.60,SSE,158,5.6,5.6,66,0.00,,---,0.37,VWS V13.01,2013-06-02 18:59:00,
2013-06-02 15:09:00,86.5,73.8,29.60,SSW,202,8.7,12.1,66,0.00,,---,0.29,VWS V13.01,2013-06-02 19:09:00,
2013-06-02 15:19:00,86.2,73.9,29.59,SSE,158,13.0,13.0,67,0.00,,---,0.29,VWS V13.01,2013-06-02 19:19:00,
2013-06-02 15:29:00,85.8,73.2,29.59,WSW,248,15.0,15.0,66,0.00,,---,0.29,VWS V13.01,2013-06-02 19:29:00,
2013-06-02 15:39:00,84.7,72.1,29.59,South,180,4.7,6.3,66,0.00,,---,0.29,VWS V13.01,2013-06-02 19:39:00,
2013-06-02 15:49:00,84.0,71.4,29.59,SW,225,6.0,7.8,66,0.00,,---,0.29,VWS V13.01,2013-06-02 19:49:00,
2013-06-02 15:59:00,83.7,71.6,29.58,SW,225,8.5,8.5,67,0.00,,---,0.29,VWS V13.01,2013-06-02 19:59:00,
2013-06-02 16:09:00,83.1,71.0,29.58,South,180,2.7,6.9,67,0.00,,---,0.20,VWS V13.01,2013-06-02 20:09:00,
2013-06-02 16:19:00,83.3,71.2,29.58,SSW,202,2.0,8.5,67,0.00,,---,0.20,VWS V13.01,2013-06-02 20:19:00,
2013-06-02 16:29:00,84.0,71.4,29.58,SE,135,2.2,11.0,66,0.00,,---,0.20,VWS V13.01,2013-06-02 20:29:00,
2013-06-02 16:34:00,84.0,71.4,29.57,SSW,202,6.9,6.9,66,0.00,,---,0.20,VWS V13.01,2013-06-02 20:34:00,
2013-06-02 16:39:00,84.6,72.0,29.58,South,180,8.1,8.1,66,0.00,,---,0.20,VWS V13.01,2013-06-02 20:39:00,
2013-06-02 16:49:00,84.7,72.1,29.57,South,180,4.3,8.3,66,0.00,,---,0.20,VWS V13.01,2013-06-02 20:49:00,
2013-06-02 16:59:00,84.7,72.1,29.57,SSW,202,10.1,10.1,66,0.00,,---,0.20,VWS V13.01,2013-06-02 20:59:00,
2013-06-02 17:04:00,84.7,72.1,29.57,SSW,202,5.6,10.1,66,0.00,,---,0.08,VWS V13.01,2013-06-02 21:04:00,
2013-06-02 17:09:00,84.7,72.6,29.57,South,180,6.7,6.7,67,0.00,,---,0.08,VWS V13.01,2013-06-02 21:09:00,
2013-06-02 17:14:00,84.7,72.6,29.57,South,180,7.6,7.6,67,0.00,,---,0.08,VWS V13.01,2013-06-02 21:14:00,
2013-06-02 17:24:00,84.4,72.7,29.57,South,180,0.0,10.7,68,0.00,,---,0.08,VWS V13.01,2013-06-02 21:24:00,
2013-06-02 17:34:00,84.4,72.7,29.58,ESE,112,6.0,6.0,68,0.00,,---,0.08,VWS V13.01,2013-06-02 21:34:00,
2013-06-02 17:44:00,84.0,72.3,29.58,SSE,158,6.3,6.3,68,0.00,,---,0.08,VWS V13.01,2013-06-02 21:44:00,
2013-06-02 17:54:00,84.0,72.3,29.58,South,180,6.9,6.9,68,0.00,,---,0.08,VWS V13.01,2013-06-02 21:54:00,
2013-06-02 18:04:00,84.0,72.3,29.57,South,180,1.6,7.6,68,0.00,,---,0.00,VWS V13.01,2013-06-02 22:04:00,
2013-06-02 18:09:00,84.0,72.3,29.57,SSE,158,0.7,5.4,68,0.00,,---,0.00,VWS V13.01,2013-06-02 22:09:00,
2013-06-02 18:19:00,83.7,72.0,29.58,South,180,1.1,6.3,68,0.00,,---,0.00,VWS V13.01,2013-06-02 22:19:00,
2013-06-02 18:29:00,83.5,72.2,29.57,South,180,2.9,7.4,69,0.00,,---,0.00,VWS V13.01,2013-06-02 22:29:00,
2013-06-02 18:39:00,83.1,71.9,29.58,ESE,112,0.0,5.8,69,0.00,,---,0.00,VWS V13.01,2013-06-02 22:39:00,
2013-06-02 18:44:00,83.1,71.9,29.58,South,180,0.0,0.0,69,0.00,,---,0.00,VWS V13.01,2013-06-02 22:44:00,
2013-06-02 18:54:00,83.1,71.9,29.58,WSW,248,0.0,3.1,69,0.00,,---,0.00,VWS V13.01,2013-06-02 22:54:00,
2013-06-02 18:59:00,82.9,71.7,29.58,WSW,248,0.0,0.0,69,0.00,,---,0.00,VWS V13.01,2013-06-02 22:59:00,
2013-06-02 19:09:00,82.6,71.0,29.58,WSW,248,0.0,2.2,68,0.00,,---,0.00,VWS V13.01,2013-06-02 23:09:00,
2013-06-02 19:14:00,82.4,70.3,29.58,WNW,292,0.0,0.0,67,0.00,,---,0.00,VWS V13.01,2013-06-02 23:14:00,
2013-06-02 19:24:00,82.2,70.2,29.59,West,270,3.1,3.1,67,0.00,,---,0.00,VWS V13.01,2013-06-02 23:24:00,
2013-06-02 19:29:00,82.0,70.0,29.59,WNW,292,2.0,3.1,67,0.00,,---,0.00,VWS V13.01,2013-06-02 23:29:00,
2013-06-02 19:39:00,81.7,69.7,29.59,WNW,292,0.7,4.9,67,0.00,,---,0.00,VWS V13.01,2013-06-02 23:39:00,
2013-06-02 19:44:00,81.3,69.8,29.60,WNW,292,0.0,0.7,68,0.00,,---,0.00,VWS V13.01,2013-06-02 23:44:00,
2013-06-02 19:54:00,80.8,69.7,29.59,West,270,1.3,1.3,69,0.00,,---,0.00,VWS V13.01,2013-06-02 23:54:00,
2013-06-02 20:04:00,80.4,69.8,29.59,West,270,0.0,0.4,70,0.00,,---,0.00,VWS V13.01,2013-06-03 00:04:00,
2013-06-02 20:14:00,80.4,69.8,29.59,West,270,0.0,1.1,70,0.00,,---,0.00,VWS V13.01,2013-06-03 00:14:00,
2013-06-02 20:19:00,80.2,69.6,29.59,West,270,0.0,0.0,70,0.00,,---,0.00,VWS V13.01,2013-06-03 00:19:00,
2013-06-02 20:29:00,79.9,69.6,29.59,WNW,292,0.0,0.0,71,0.00,,---,0.00,VWS V13.01,2013-06-03 00:29:00,
2013-06-02 20:39:00,79.7,69.5,29.59,West,270,1.1,6.5,71,0.00,,---,0.00,VWS V13.01,2013-06-03 00:39:00,
2013-06-02 20:44:00,79.5,69.3,29.59,West,270,1.1,1.1,71,0.00,,---,0.00,VWS V13.01,2013-06-03 00:44:00,
2013-06-02 20:54:00,79.3,69.5,29.59,WNW,292,0.0,0.0,72,0.00,,---,0.00,VWS V13.01,2013-06-03 00:54:00,
2013-06-02 20:59:00,79.3,69.5,29.59,WNW,292,0.0,0.0,72,0.00,,---,0.00,VWS V13.01,2013-06-03 00:59:00,
2013-06-02 21:09:00,79.3,69.5,29.60,NNW,338,0.0,0.0,72,0.00,,---,0.00,VWS V13.01,2013-06-03 01:09:00,
2013-06-02 21:19:00,79.2,69.4,29.60,NNW,338,1.3,1.3,72,0.00,,---,0.00,VWS V13.01,2013-06-03 01:19:00,
2013-06-02 21:24:00,79.2,69.8,29.61,North,0,2.9,2.9,73,0.00,,---,0.00,VWS V13.01,2013-06-03 01:24:00,
2013-06-02 21:34:00,79.0,69.6,29.61,North,0,0.0,0.0,73,0.00,,---,0.00,VWS V13.01,2013-06-03 01:34:00,
2013-06-02 21:44:00,78.8,69.8,29.61,NW,315,0.0,0.0,74,0.00,,---,0.00,VWS V13.01,2013-06-03 01:44:00,
2013-06-02 21:54:00,78.6,69.7,29.62,NW,315,0.0,0.0,74,0.00,,---,0.00,VWS V13.01,2013-06-03 01:54:00,
2013-06-02 22:04:00,78.8,69.8,29.62,NW,315,0.0,0.0,74,0.00,,---,0.00,VWS V13.01,2013-06-03 02:04:00,
2013-06-02 22:14:00,78.6,69.7,29.62,NW,315,0.0,0.0,74,0.00,,---,0.00,VWS V13.01,2013-06-03 02:14:00,
2013-06-02 22:19:00,78.6,69.7,29.63,NW,315,0.0,0.0,74,0.00,,---,0.00,VWS V13.01,2013-06-03 02:19:00,
2013-06-02 22:24:00,78.6,69.7,29.63,NW,315,0.0,0.0,74,0.00,,---,0.00,VWS V13.01,2013-06-03 02:24:00,
2013-06-02 22:34:00,78.6,69.7,29.63,NW,315,0.0,0.0,74,0.00,,---,0.00,VWS V13.01,2013-06-03 02:34:00,
2013-06-02 22:44:00,78.6,69.7,29.63,NW,315,0.0,0.0,74,0.00,,---,0.00,VWS V13.01,2013-06-03 02:44:00,
2013-06-02 22:54:00,78.6,70.0,29.63,NW,315,0.0,0.0,75,0.00,,---,0.00,VWS V13.01,2013-06-03 02:54:00,
2013-06-02 23:04:00,78.4,69.9,29.63,NW,315,0.0,0.0,75,0.00,,---,0.00,VWS V13.01,2013-06-03 03:04:00,
2013-06-02 23:09:00,78.4,69.9,29.63,NW,315,0.0,0.0,75,0.00,,---,0.00,VWS V13.01,2013-06-03 03:09:00,
2013-06-02 23:14:00,78.4,69.9,29.63,NW,315,0.0,0.0,75,0.00,,---,0.00,VWS V13.01,2013-06-03 03:14:00,
2013-06-02 23:24:00,78.4,69.9,29.63,NW,315,0.0,0.0,75,0.00,,---,0.00,VWS V13.01,2013-06-03 03:24:00,
2013-06-02 23:34:00,78.4,69.9,29.63,NW,315,0.0,0.0,75,0.00,,---,0.00,VWS V13.01,2013-06-03 03:34:00,
2013-06-02 23:39:00,78.3,69.7,29.63,NW,315,0.0,0.0,75,0.00,,---,0.00,VWS V13.01,2013-06-03 03:39:00,
2013-06-02 23:49:00,78.1,69.5,29.63,NW,315,0.0,0.0,75,0.00,,---,0.00,VWS V13.01,2013-06-03 03:49:00,
2013-06-02 23:54:00,78.1,69.5,29.63,NW,315,0.0,0.0,75,0.00,,---,0.00,VWS V13.01,2013-06-03 03:54:00,